Latest Coastal Weather Observations for Weipa

IDQ60701

Issued at 5:52 pm EST Tuesday 26 May 2020 (issued every 10 minutes, with the page automatically refreshed every 10 minutes)

About coastal observations | Map of coastal stations | Coastal observations for QLD | Marine services | Other Formats
Station Details ID: 027045 Name: WEIPA AERO Lat: -12.68 Lon: 141.92 Height: 17.96 m
Data from the previous 72 hours. | See also: Recent months at Weipa
Date/Time
EST
Wind Sea
Height
m
Swell Vis
km
Cloud Weather Temp
°C
Press
hPa
Rain since
9am
mm
Dir  Spd
kts
Gust
kts
Height
m
Period
s
Dir
26/05:30pm SW 4 6 - - - - 10 - - 28.6 1012.9 0.0
26/05:00pm SSW 5 7 - - - - 10 Partly cloudy - 29.6 1012.6 0.0
26/04:30pm S 5 6 - - - - 10 Partly cloudy - 29.5 1012.6 0.0
26/04:00pm WSW 5 7 - - - - 10 Cloudy - 30.2 1012.6 0.0
26/03:30pm WNW 4 5 - - - - 10 Partly cloudy - 30.3 1012.8 0.0
26/03:00pm NNW 5 7 - - - - 10 Mostly cloudy - 30.7 1012.9 0.0
26/02:30pm N 5 9 - - - - 10 - - 30.5 1013.0 0.0
26/02:00pm E 6 10 - - - - 10 Partly cloudy - 30.0 1013.4 0.0
26/01:30pm NNE 3 7 - - - - 10 Partly cloudy - 29.3 1013.7 0.0
26/01:00pm ENE 4 11 - - - - 10 Partly cloudy - 29.6 1014.1 0.0
26/12:30pm ENE 5 9 - - - - 10 Partly cloudy - 28.7 1014.5 0.0
26/12:00pm ESE 5 9 - - - - 10 Partly cloudy - 27.6 1015.1 0.0
26/11:30am ESE 7 10 - - - - 10 - - 27.2 1015.6 0.0
26/11:00am ESE 7 11 - - - - 10 Partly cloudy - 26.8 1016.1 0.0
26/10:30am ESE 9 12 - - - - 10 Partly cloudy - 26.2 1016.6 0.0
26/10:00am E 9 12 - - - - 10 - - 25.5 1016.8 0.0
26/09:30am ESE 9 12 - - - - 10 Partly cloudy - 24.6 1016.6 0.0
26/09:00am SE 7 8 - - - - 10 Mostly cloudy - 23.1 1016.6 0.0
26/08:30am ESE 5 7 - - - - 10 Partly cloudy - 21.5 1016.5 0.0
26/08:00am ESE 4 6 - - - - 10 Partly cloudy - 20.6 1016.3 0.0
26/07:30am SSE 3 4 - - - - 10 Partly cloudy - 19.8 1016.2 0.0
26/07:00am SE 4 5 - - - - 10 Partly cloudy - 19.5 1015.7 0.0
26/06:30am SSW 4 5 - - - - 10 Partly cloudy - 19.4 1015.4 0.0
26/06:00am SE 4 5 - - - - 10 Mostly cloudy - 19.9 1015.2 0.0
26/05:30am SE 2 5 - - - - 10 Partly cloudy - 20.1 1015.0 0.0
26/05:00am SSE 3 4 - - - - 10 Partly cloudy - 19.9 1015.0 0.0
26/04:30am SSE 4 5 - - - - 10 Partly cloudy - 20.0 1014.9 0.0
26/04:00am SE 4 6 - - - - 10 Cloudy - 20.4 1014.5 0.0
26/03:30am S 3 5 - - - - 10 Partly cloudy - 20.4 1014.9 0.0
26/03:00am SSE 2 4 - - - - 10 Cloudy - 20.3 1015.0 0.0
26/02:30am SSE 2 4 - - - - 10 Partly cloudy - 20.6 1015.2 0.0
26/02:00am SE 3 4 - - - - 10 Cloudy - 20.7 1015.3 0.0
26/01:30am SSE 4 5 - - - - 10 Partly cloudy - 20.2 1015.2 0.0
26/01:00am CALM 0 3 - - - - 10 Partly cloudy - 20.3 1015.3 0.0
26/12:30am SSE 2 4 - - - - 10 Partly cloudy - 20.5 1015.3 0.0
26/12:00am SE 3 4 - - - - 10 Cloudy - 20.3 1015.7 0.0
 
Date/Time
EST
Wind Sea
Height
m
Swell Vis
km
Cloud Weather Temp
°C
Press
hPa
Rain since
9am
mm
Dir  Spd
kts
Gust
kts
Height
m
Period
s
Dir
25/11:30pm CALM 0 0 - - - - 10 Partly cloudy - 20.0 1015.9 0.0
25/11:00pm CALM 0 0 - - - - 10 - - 20.2 1015.9 0.0
25/10:30pm CALM 0 0 - - - - 10 - - 20.6 1015.8 0.0
25/10:00pm CALM 0 0 - - - - 10 Partly cloudy - 21.1 1015.8 0.0
25/09:30pm ENE 3 5 - - - - 10 Partly cloudy - 21.6 1015.8 0.0
25/09:00pm ESE 3 5 - - - - 10 Cloudy - 22.0 1015.7 0.0
25/08:30pm SE 5 16 - - - - 10 Partly cloudy - 22.0 1015.4 0.0
25/08:00pm SSW 2 4 - - - - 10 - - 21.8 1014.7 0.0
25/07:30pm SW 4 5 - - - - 10 - - 22.1 1014.4 0.0
25/07:00pm WSW 4 5 - - - - 10 - - 22.3 1014.0 0.0
25/06:30pm WSW 4 5 - - - - 10 - - 22.9 1013.8 0.0
25/06:00pm WSW 5 7 - - - - 10 - - 24.2 1013.4 0.0
25/05:30pm WSW 5 7 - - - - 10 - - 25.5 1013.1 0.0
25/05:00pm W 5 7 - - - - 10 - - 26.8 1013.0 0.0
25/04:30pm ESE 1 5 - - - - 10 - - 28.5 1012.8 0.0
25/04:00pm NNE 2 6 - - - - 10 - - 28.0 1012.8 0.0
25/03:30pm ESE 5 6 - - - - 10 - - 27.6 1012.9 0.0
25/03:00pm NE 4 6 - - - - 10 - - 27.6 1013.0 0.0
25/02:30pm ENE 5 7 - - - - 10 - - 27.5 1013.4 0.0
25/02:00pm NE 5 9 - - - - 10 - - 27.2 1013.8 0.0
25/01:30pm ESE 6 12 - - - - 10 - - 26.5 1014.1 0.0
25/01:00pm SE 6 11 - - - - 10 - - 25.9 1014.5 0.0
25/12:30pm ESE 8 12 - - - - 10 - - 25.2 1015.1 0.0
25/12:00pm SE 8 11 - - - - 10 - - 25.0 1015.6 0.0
25/11:30am SSE 7 11 - - - - 10 - - 24.8 1016.2 0.0
25/11:00am SE 7 10 - - - - 10 - - 23.5 1016.6 0.0
25/10:30am SSE 7 11 - - - - 10 - - 22.5 1017.2 0.0
25/10:00am SSE 8 12 - - - - 10 - - 21.7 1017.4 0.0
25/09:30am SSE 9 14 - - - - 10 - - 21.0 1017.4 0.0
25/09:00am SSE 9 15 - - - - 10 - - 20.1 1017.2 0.0
25/08:30am SE 7 11 - - - - 10 - - 19.2 1017.5 0.0
25/08:00am SE 7 9 - - - - 10 - - 18.0 1017.0 0.0
25/07:30am SE 6 9 - - - - 10 - - 16.9 1016.8 0.0
25/07:00am SE 5 7 - - - - 10 - - 16.4 1016.7 0.0
25/06:30am SE 5 8 - - - - 10 - - 16.6 1016.5 0.0
25/06:00am SE 6 9 - - - - 10 Cloudy - 17.0 1016.3 0.0
25/05:30am SE 7 9 - - - - 10 Partly cloudy - 17.6 1016.2 0.0
25/05:00am SSE 7 11 - - - - 10 Partly cloudy - 17.7 1015.9 0.0
25/04:30am SSE 7 13 - - - - 10 - - 17.4 1015.6 0.0
25/04:00am SSE 7 11 - - - - 10 - - 17.4 1015.4 0.0
25/03:30am SSE 7 10 - - - - 10 - - 17.3 1015.3 0.0
25/03:00am S 5 7 - - - - 10 Partly cloudy - 17.3 1015.1 0.0
25/02:30am S 4 6 - - - - 10 - - 17.3 1015.1 0.0
25/02:00am SE 4 5 - - - - 10 - - 17.9 1015.1 0.0
25/01:30am SSE 4 5 - - - - 10 - - 17.8 1015.0 0.0
25/01:00am SSE 4 5 - - - - 10 - - 17.3 1015.1 0.0
25/12:30am SE 4 5 - - - - 10 - - 17.5 1015.2 0.0
25/12:00am S 1 4 - - - - 10 Mostly clear - 17.7 1015.1 0.0
 
Date/Time
EST
Wind Sea
Height
m
Swell Vis
km
Cloud Weather Temp
°C
Press
hPa
Rain since
9am
mm
Dir  Spd
kts
Gust
kts
Height
m
Period
s
Dir
24/11:45pm CALM 0 0 - - - - 10 - - 17.9 1015.3 0.0
24/11:30pm S 2 5 - - - - 2 - - 18.1 1015.4 0.0
24/11:24pm S 4 5 - - - - 5 - - 18.0 1015.4 0.0
24/11:00pm S 4 5 - - - - 10 - - 18.1 1015.4 0.0
24/10:30pm S 3 5 - - - - 10 - - 18.1 1015.3 0.0
24/10:00pm S 4 5 - - - - 10 - - 18.4 1015.3 0.0
24/09:30pm S 3 4 - - - - 10 - - 18.2 1015.2 0.0
24/09:00pm S 3 4 - - - - 10 Mostly clear - 18.8 1015.0 0.0
24/08:30pm CALM 0 0 - - - - 10 - - 19.7 1015.0 0.0
24/08:00pm CALM 0 0 - - - - 10 - - 19.6 1015.0 0.0
24/07:30pm S 3 4 - - - - 10 - - 20.2 1014.7 0.0
24/07:00pm S 3 4 - - - - 10 - - 20.4 1014.6 0.0
24/06:30pm SSE 5 6 - - - - 10 - - 21.7 1014.3 0.0
24/06:00pm SSE 5 6 - - - - 10 - - 22.6 1014.1 0.0
24/05:30pm SSE 5 7 - - - - 10 - - 24.1 1013.7 0.0
24/05:00pm S 5 7 - - - - 10 - - 25.2 1013.3 0.0
24/04:30pm SSW 5 9 - - - - 10 - - 25.0 1013.0 0.0
24/04:00pm SSW 7 10 - - - - 10 - - 25.4 1012.9 0.0
24/03:30pm SSW 7 11 - - - - 10 - - 25.5 1012.9 0.0
24/03:00pm SSW 6 8 - - - - 10 - - 25.5 1012.8 0.0
24/02:30pm SSE 6 9 - - - - 10 - - 25.3 1012.7 0.0
24/02:00pm S 6 9 - - - - 10 - - 25.2 1013.1 0.0
24/01:30pm SE 7 13 - - - - 10 - - 24.6 1013.4 0.0
24/01:00pm ESE 6 11 - - - - 10 - - 23.8 1013.9 0.0
24/12:30pm SE 6 11 - - - - 10 - - 22.7 1014.5 0.0
24/12:00pm SSE 6 11 - - - - 10 - - 22.7 1015.0 0.0
24/11:30am ESE 8 13 - - - - 10 Partly cloudy - 21.8 1015.6 0.0
24/11:00am SE 8 12 - - - - 10 Partly cloudy - 20.5 1016.3 0.0
24/10:30am SE 9 12 - - - - 10 Cloudy - 20.2 1016.5 0.0
24/10:00am SSE 9 14 - - - - 10 Partly cloudy - 19.4 1016.6 0.0
24/09:30am SSE 9 13 - - - - 10 Cloudy - 19.2 1016.7 0.0
24/09:00am SSE 8 13 - - - - 10 Cloudy - 18.8 1016.5 0.2
24/08:30am SSE 6 10 - - - - 10 Partly cloudy - 18.4 1016.3 0.2
24/08:00am SSE 7 10 - - - - 10 Cloudy - 18.2 1015.8 0.2
24/07:30am SSE 6 9 - - - - 10 Partly cloudy - 18.2 1015.5 0.2
24/07:00am SSE 5 7 - - - - 10 Partly cloudy - 18.2 1015.1 0.2
24/06:30am SSE 6 9 - - - - 10 Cloudy - 18.2 1014.7 0.2
24/06:00am SSE 5 9 - - - - 10 Cloudy - 18.2 1014.4 0.2
24/05:30am SSE 6 9 - - - - 10 Partly cloudy - 18.3 1014.1 0.2
24/05:00am SSE 7 11 - - - - 10 Partly cloudy - 18.5 1013.9 0.2
24/04:30am SSE 7 9 - - - - 10 Partly cloudy - 18.6 1013.6 0.2
24/04:00am S 9 15 - - - - 10 Partly cloudy - 18.7 1013.5 0.2
24/03:56am S 9 15 - - - - 10 Partly cloudy - 18.8 1013.4 0.2
24/03:30am S 8 12 - - - - 10 Partly cloudy - 18.9 1013.5 0.2
24/03:27am S 9 12 - - - - 10 Partly cloudy - 18.9 1013.5 0.2
24/03:00am S 6 11 - - - - 10 Cloudy - 19.0 1013.5 0.2
24/02:30am S 7 10 - - - - 10 Cloudy - 19.2 1013.3 0.2
24/02:00am S 7 11 - - - - 10 Cloudy - 19.4 1013.5 0.2
24/01:30am S 6 11 - - - - 10 Partly cloudy - 19.4 1013.8 0.2
24/01:00am S 5 7 - - - - 10 Partly cloudy - 19.4 1014.1 0.2
24/12:30am SSW 5 7 - - - - 10 Partly cloudy - 19.6 1014.4 0.2
24/12:00am SSW 5 9 - - - - 10 Mostly cloudy - 19.8 1014.6 0.2
 
Date/Time
EST
Wind Sea
Height
m
Swell Vis
km
Cloud Weather Temp
°C
Press
hPa
Rain since
9am
mm
Dir  Spd
kts
Gust
kts
Height
m
Period
s
Dir
23/11:30pm SSW 5 9 - - - - 10 Partly cloudy - 20.1 1014.5 0.2
23/11:00pm SSW 5 9 - - - - 10 - - 20.4 1014.3 0.2
23/10:30pm SSW 6 9 - - - - 10 - - 20.6 1014.3 0.2
23/10:00pm S 4 7 - - - - 10 - - 20.8 1014.3 0.2
23/09:30pm S 5 8 - - - - 10 Partly cloudy - 21.1 1014.3 0.2
23/09:00pm SSW 3 5 - - - - 10 Cloudy - 21.2 1014.1 0.2
23/08:30pm SSW 4 6 - - - - 10 - - 21.5 1014.0 0.2
23/08:00pm SW 4 6 - - - - 10 Partly cloudy - 21.8 1013.6 0.2
23/07:30pm S 4 6 - - - - 10 Cloudy - 22.2 1013.1 0.2
23/07:00pm S 4 8 - - - - 10 Cloudy - 22.3 1012.5 0.2
23/06:30pm S 6 10 - - - - 10 Cloudy - 22.5 1012.1 0.2
23/06:00pm SSW 7 12 - - - - 10 Mostly cloudy - 22.8 1011.7 0.2

Other formats

Comma delimited format used in spreadsheet applications
http://www.bom.gov.au/fwo/IDQ60701/IDQ60701.94170.axf

JavaScript Object Notation format (JSON) in row-major order
http://www.bom.gov.au/fwo/IDQ60701/IDQ60701.94170.json

Data quality

Most of these data are generated automatically and are frequently updated. Quality checks on data are not normally performed. It is possible for incorrect values to appear. Refer to information at About Latest Weather Observations and please check the disclaimer before using these data.